Cottingham, United Kingdom
Current Conditions -  °F | °C
As of 4:50 AM on Saturday 01 Nov 2014 (Local Time) from EGXV Reporting Station
Broken Clouds Broken Clouds  
Wind Chill: 59°   Ceiling: 11000
Heat Index: 59°   Visibility: 6mi
Dew Point: 59°   Wind: 7mph
Humidity: 100%   Direction: 220°SW
Pressure: 29.8"   Gusts: NA
Location:  53.78°N, 0.41°W
Report Text: EGXV 010450Z AUTO 22006KT 9999 FEW021/// BKN110/// 15/15 Q1009 RERA
Loading
Personal Weather Stations






























Interactive Weather Map
Tropical Storm Tracking
New forecast layout! Learn more

10-Day Weather Forecast

Advertisements
Track Severe Weather on mobile